Terminal Aerodrome Forecast
Issued by NWS

Home | Current Version | Previous Version | Text Only | Print | Product List | Glossary On
Versions: 1 2 3 4 5 6 7 8 9 10 11 12
000
FTAK31 PANC 281124
TAFATK
TAF
PATK 281124Z 2812/2912 18004KT P6SM -SHRA BKN030 OVC040
     FM281500 VRB03KT P6SM -SHRA BKN020 OVC050
     FM282200 VRB03KT P6SM VCSH SCT020 OVC050=

USA.gov is the U.S. government's official web portal to all federal, state and local government web resources and services.